P. B. Shah — WDB8609 — position and weather

sailwx.info

Track history (hours):
 
Tides and Currents Weather Stations Pressure Air Temp Water Temp Dewpoint Dewpoint Depression Visibility Wind Speed Wind Dir Waves Ship Positions

P. B. Shah

Owner: Ingram Barge Company LLC, Nashville, TN. More information available from US FCC via Universal Licensing System and Coast Guard Vessel Documentation Center.

Last reported at 2017-Oct-18 08:57 UTC. Time now 2017-Oct-19 02:21 UTC.
Position N 33°05' W 091°10'.

Length 49 m; draft 3 m.

Type: Towing. MMSI: 366961480.

Date/timePositionNaut miles runAvg speedWind from/ knotsBaromVisibWave heightAir tempDewpointWater temp
2017-Oct-18 08:57N 33°05' W 091°10'17 3.4
2017-Oct-18 03:49N 32°47' W 091°09'2 4.8
2017-Oct-18 03:30N 32°46' W 091°09'2 3.7
2017-Oct-18 03:00N 32°44' W 091°08'6 0.8
2017-Oct-17 19:50N 32°38' W 091°09'2 4.7
2017-Oct-17 19:30N 32°37' W 091°09'1 1.0
2017-Oct-17 19:00N 32°36' W 091°09'2 3.3
2017-Oct-17 18:30N 32°35' W 091°08'2 4.7
2017-Oct-17 18:00N 32°33' W 091°06'3 4.9
2017-Oct-17 17:30N 32°31' W 091°07'3 5.3
2017-Oct-17 17:00N 32°28' W 091°06'3 5.3
2017-Oct-17 16:31N 32°27' W 091°04'3 5.1
2017-Oct-17 16:00N 32°26' W 091°01'2 4.2
2017-Oct-17 15:30N 32°24' W 090°59'2 4.8
2017-Oct-17 15:00N 32°22' W 091°00'3 5.3
2017-Oct-17 14:31N 32°21' W 090°57'3 5.0
2017-Oct-17 14:00N 32°20' W 090°54'2 4.2
2017-Oct-17 13:30N 32°18' W 090°55'0 0.5
2017-Oct-17 13:00N 32°18' W 090°55'0 0.0
2017-Oct-17 12:31N 32°18' W 090°55'0 0.0
2017-Oct-17 12:00N 32°18' W 090°55'0 0.0
2017-Oct-17 11:30N 32°18' W 090°55'1 2.8
2017-Oct-17 11:01N 32°17' W 090°56'3 5.1
2017-Oct-17 10:30N 32°15' W 090°58'2 4.8
2017-Oct-17 10:00N 32°13' W 090°59'3 5.5
2017-Oct-17 09:30N 32°10' W 091°00'2 4.8
2017-Oct-17 09:00N 32°08' W 091°00'2 4.5
2017-Oct-17 08:30N 32°07' W 091°03'3 5.4
2017-Oct-17 08:01N 32°08' W 091°06'64 1.3
2017-Oct-15 07:59N 31°09' W 091°36'9 4.5
2017-Oct-15 06:06N 31°16' W 091°31'4 8.0
2017-Oct-15 05:36N 31°20' W 091°30'12 6.1
2017-Oct-15 03:34N 31°32' W 091°27'11 7.0
2017-Oct-15 02:01N 31°43' W 091°24'17 6.9
2017-Oct-14 23:31N 31°57' W 091°12'1 9.0
2017-Oct-14 23:24N 31°58' W 091°11'5 8.0
2017-Oct-14 22:46N 31°60' W 091°06'2 8.4
2017-Oct-14 22:30N 32°01' W 091°04'4 7.6
2017-Oct-14 21:59N 32°05' W 091°05'3 5.7
2017-Oct-14 21:30N 32°08' W 091°06'2 3.8
2017-Oct-14 21:00N 32°08' W 091°04'3 6.8
2017-Oct-14 20:30N 32°09' W 091°00'4 7.7
2017-Oct-14 20:00N 32°12' W 090°59'4 8.8
2017-Oct-14 19:30N 32°16' W 090°57'4 8.5
2017-Oct-14 19:00N 32°20' W 090°54'3 6.9
2017-Oct-14 18:30N 32°21' W 090°58'3 5.9
2017-Oct-14 18:00N 32°23' W 090°60'4 7.1
2017-Oct-14 17:30N 32°26' W 091°02'4 7.3
2017-Oct-14 17:00N 32°28' W 091°06'4 8.1
2017-Oct-14 16:30N 32°32' W 091°06'4 8.5
2017-Oct-14 16:00N 32°36' W 091°08'4 8.2
2017-Oct-14 15:30N 32°40' W 091°08'  
Track history (hours):
 
Tides and Currents Weather Stations Pressure Air Temp Water Temp Dewpoint Dewpoint Depression Visibility Wind Speed Wind Dir Waves Ship Positions

P. B. Shah

Owner: Ingram Barge Company LLC, Nashville, TN. More information available from US FCC via Universal Licensing System and Coast Guard Vessel Documentation Center.

Last reported at 2017-Oct-18 08:57 UTC. Time now 2017-Oct-19 02:21 UTC.
Position N 33°05' W 091°10'.

Length 49 m; draft 3 m.

Type: Towing. MMSI: 366961480.

Date/timePositionNaut miles runAvg speedWind from/ knotsBaromVisibWave heightAir tempDewpointWater temp
2017-Oct-18 08:57N 33°05' W 091°10'17 3.4
2017-Oct-18 03:49N 32°47' W 091°09'2 4.8
2017-Oct-18 03:30N 32°46' W 091°09'2 3.7
2017-Oct-18 03:00N 32°44' W 091°08'6 0.8
2017-Oct-17 19:50N 32°38' W 091°09'2 4.7
2017-Oct-17 19:30N 32°37' W 091°09'1 1.0
2017-Oct-17 19:00N 32°36' W 091°09'2 3.3
2017-Oct-17 18:30N 32°35' W 091°08'2 4.7
2017-Oct-17 18:00N 32°33' W 091°06'3 4.9
2017-Oct-17 17:30N 32°31' W 091°07'3 5.3
2017-Oct-17 17:00N 32°28' W 091°06'3 5.3
2017-Oct-17 16:31N 32°27' W 091°04'3 5.1
2017-Oct-17 16:00N 32°26' W 091°01'2 4.2
2017-Oct-17 15:30N 32°24' W 090°59'2 4.8
2017-Oct-17 15:00N 32°22' W 091°00'3 5.3
2017-Oct-17 14:31N 32°21' W 090°57'3 5.0
2017-Oct-17 14:00N 32°20' W 090°54'2 4.2
2017-Oct-17 13:30N 32°18' W 090°55'0 0.5
2017-Oct-17 13:00N 32°18' W 090°55'0 0.0
2017-Oct-17 12:31N 32°18' W 090°55'0 0.0
2017-Oct-17 12:00N 32°18' W 090°55'0 0.0
2017-Oct-17 11:30N 32°18' W 090°55'1 2.8
2017-Oct-17 11:01N 32°17' W 090°56'3 5.1
2017-Oct-17 10:30N 32°15' W 090°58'2 4.8
2017-Oct-17 10:00N 32°13' W 090°59'3 5.5
2017-Oct-17 09:30N 32°10' W 091°00'2 4.8
2017-Oct-17 09:00N 32°08' W 091°00'2 4.5
2017-Oct-17 08:30N 32°07' W 091°03'3 5.4
2017-Oct-17 08:01N 32°08' W 091°06'64 1.3
2017-Oct-15 07:59N 31°09' W 091°36'9 4.5
2017-Oct-15 06:06N 31°16' W 091°31'4 8.0
2017-Oct-15 05:36N 31°20' W 091°30'12 6.1
2017-Oct-15 03:34N 31°32' W 091°27'11 7.0
2017-Oct-15 02:01N 31°43' W 091°24'17 6.9
2017-Oct-14 23:31N 31°57' W 091°12'1 9.0
2017-Oct-14 23:24N 31°58' W 091°11'5 8.0
2017-Oct-14 22:46N 31°60' W 091°06'2 8.4
2017-Oct-14 22:30N 32°01' W 091°04'4 7.6
2017-Oct-14 21:59N 32°05' W 091°05'3 5.7
2017-Oct-14 21:30N 32°08' W 091°06'2 3.8
2017-Oct-14 21:00N 32°08' W 091°04'3 6.8
2017-Oct-14 20:30N 32°09' W 091°00'4 7.7
2017-Oct-14 20:00N 32°12' W 090°59'4 8.8
2017-Oct-14 19:30N 32°16' W 090°57'4 8.5
2017-Oct-14 19:00N 32°20' W 090°54'3 6.9
2017-Oct-14 18:30N 32°21' W 090°58'3 5.9
2017-Oct-14 18:00N 32°23' W 090°60'4 7.1
2017-Oct-14 17:30N 32°26' W 091°02'4 7.3
2017-Oct-14 17:00N 32°28' W 091°06'4 8.1
2017-Oct-14 16:30N 32°32' W 091°06'4 8.5
2017-Oct-14 16:00N 32°36' W 091°08'4 8.2
2017-Oct-14 15:30N 32°40' W 091°08'  

Dump ship's entire track history